Time;durP1;ratioP1;P1;durP2;ratioP2;P2;SDS_P1;SDS_P2;PMS_P1;PMS_P2;Temp;Humidity;BMP_temperature;BMP_pressure;BME280_temperature;BME280_humidity;BME280_pressure;Samples;Min_cycle;Max_cycle;Signal;HPM_P1;HPM_P2
2021/08/14 00:01:47;;;;;;;3.70;2.17;;;24.30;56.00;;;;;;2526838;53;20982;-85
2021/08/14 00:04:13;;;;;;;3.92;2.28;;;24.30;56.10;;;;;;2300790;54;21049;-85
2021/08/14 00:06:39;;;;;;;3.95;2.05;;;24.30;56.10;;;;;;2320397;54;21403;-86
2021/08/14 00:09:06;;;;;;;3.83;2.03;;;24.30;56.10;;;;;;2301205;54;21009;-85
2021/08/14 00:11:32;;;;;;;3.80;2.30;;;24.20;56.10;;;;;;2320238;54;21087;-85
2021/08/14 00:13:58;;;;;;;4.05;1.87;;;24.20;56.20;;;;;;2308375;54;20990;-85
2021/08/14 00:16:25;;;;;;;4.35;2.08;;;24.20;56.20;;;;;;2542157;53;20975;-85
2021/08/14 00:18:51;;;;;;;8.98;2.35;;;24.10;56.10;;;;;;2552155;53;20955;-85
2021/08/14 00:21:17;;;;;;;3.87;2.10;;;24.10;56.20;;;;;;2316178;54;21513;-87
2021/08/14 00:23:44;;;;;;;3.50;2.10;;;24.10;56.20;;;;;;2329293;54;20969;-84
2021/08/14 00:26:10;;;;;;;4.32;2.10;;;24.00;56.20;;;;;;2551779;53;21276;-87
2021/08/14 00:28:37;;;;;;;3.92;2.10;;;24.00;56.30;;;;;;2556915;53;20946;-85
2021/08/14 00:31:03;;;;;;;3.80;1.83;;;23.90;56.30;;;;;;2544023;53;21315;-83
2021/08/14 00:33:29;;;;;;;3.83;2.00;;;23.90;56.40;;;;;;2545274;53;20929;-84
2021/08/14 00:35:55;;;;;;;4.28;2.12;;;23.90;56.50;;;;;;2552492;53;21053;-83
2021/08/14 00:38:22;;;;;;;4.00;2.25;;;23.90;56.50;;;;;;2543822;53;20989;-85
2021/08/14 00:40:48;;;;;;;4.10;2.40;;;23.80;56.40;;;;;;2551147;53;20934;-84
2021/08/14 00:43:15;;;;;;;3.65;2.12;;;23.80;56.50;;;;;;2555552;53;21867;-84
2021/08/14 00:45:41;;;;;;;4.18;2.10;;;23.80;56.60;;;;;;2555494;53;21710;-84
2021/08/14 00:48:14;;;;;;;4.18;2.08;;;23.80;56.70;;;;;;2507113;54;22117;-86
2021/08/14 00:50:41;;;;;;;3.78;2.20;;;23.70;56.60;;;;;;2297660;54;21061;-86
2021/08/14 00:53:07;;;;;;;3.40;2.08;;;23.70;56.80;;;;;;2311040;54;21037;-85
2021/08/14 00:55:33;;;;;;;3.20;2.17;;;23.70;56.90;;;;;;2319666;54;21231;-86
2021/08/14 00:57:59;;;;;;;5.40;2.33;;;23.60;56.90;;;;;;2317123;54;21779;-86
2021/08/14 01:00:26;;;;;;;3.92;2.05;;;23.60;57.10;;;;;;2539205;53;20954;-83
2021/08/14 01:02:54;;;;;;;3.35;2.12;;;23.50;56.90;;;;;;2534095;53;21043;-83
2021/08/14 01:05:21;;;;;;;4.22;2.12;;;23.50;57.00;;;;;;2544297;53;21824;-85
2021/08/14 01:08:00;;;;;;;4.10;2.20;;;23.50;57.00;;;;;;2515913;53;20987;-83
2021/08/14 01:10:26;;;;;;;5.53;2.72;;;23.50;57.20;;;;;;2553221;53;20964;-86
2021/08/14 01:12:54;;;;;;;4.03;2.30;;;23.40;57.10;;;;;;2551726;53;21005;-84
2021/08/14 01:15:20;;;;;;;5.32;2.53;;;23.40;57.20;;;;;;2300838;54;21563;-85
2021/08/14 01:17:46;;;;;;;4.32;2.53;;;23.40;57.20;;;;;;2539256;53;21060;-87
2021/08/14 01:20:14;;;;;;;3.90;2.20;;;23.40;57.50;;;;;;2299718;54;20978;-85
2021/08/14 01:22:40;;;;;;;4.68;2.60;;;23.40;57.70;;;;;;2515232;53;21237;-85
2021/08/14 01:25:08;;;;;;;4.25;2.15;;;23.40;57.70;;;;;;2306239;54;21001;-86
2021/08/14 01:27:35;;;;;;;5.87;2.45;;;23.30;57.70;;;;;;2306561;54;21069;-84
2021/08/14 01:30:03;;;;;;;3.45;2.30;;;23.40;57.90;;;;;;2306080;54;21289;-85
2021/08/14 01:32:29;;;;;;;3.97;2.15;;;23.30;57.90;;;;;;2515734;53;21080;-85
2021/08/14 01:34:56;;;;;;;3.70;2.15;;;23.40;58.00;;;;;;2323539;54;20998;-85
2021/08/14 01:37:22;;;;;;;4.07;2.33;;;23.40;58.00;;;;;;2535845;53;20941;-85
2021/08/14 01:39:48;;;;;;;3.75;2.22;;;23.40;57.90;;;;;;2297861;54;21998;-85
2021/08/14 01:42:14;;;;;;;3.95;1.85;;;23.30;57.80;;;;;;2303856;54;20934;-83
2021/08/14 01:44:41;;;;;;;4.75;2.22;;;23.30;57.80;;;;;;2546949;53;20986;-83
2021/08/14 01:47:09;;;;;;;3.53;1.98;;;23.40;57.90;;;;;;2326164;54;20971;-85
2021/08/14 01:49:35;;;;;;;4.72;2.25;;;23.30;57.80;;;;;;2328500;54;21858;-83
2021/08/14 01:52:08;;;;;;;4.00;2.35;;;23.30;57.80;;;;;;2543089;53;21838;-86
2021/08/14 01:54:34;;;;;;;4.28;2.60;;;23.30;58.00;;;;;;2327718;54;21019;-85
2021/08/14 01:57:01;;;;;;;4.03;2.10;;;23.30;57.80;;;;;;2313759;54;21810;-86
2021/08/14 01:59:27;;;;;;;3.95;2.15;;;23.20;57.70;;;;;;2550694;53;21004;-85
2021/08/14 02:01:53;;;;;;;3.60;2.33;;;23.20;57.80;;;;;;2489905;53;21110;-84
2021/08/14 02:04:20;;;;;;;4.07;2.10;;;23.20;58.00;;;;;;2316795;54;20993;-86
2021/08/14 02:06:46;;;;;;;3.80;2.15;;;23.20;58.00;;;;;;2546031;53;20989;-84
2021/08/14 02:09:13;;;;;;;3.65;2.05;;;23.20;58.00;;;;;;2299455;54;21038;-83
2021/08/14 02:11:39;;;;;;;3.42;2.17;;;23.10;58.00;;;;;;2307362;54;21003;-84
2021/08/14 02:14:05;;;;;;;4.60;2.47;;;23.10;58.00;;;;;;2538933;53;21236;-85
2021/08/14 02:16:33;;;;;;;5.85;2.58;;;23.10;58.10;;;;;;2316436;54;21850;-83
2021/08/14 02:18:59;;;;;;;4.00;2.20;;;23.20;58.20;;;;;;2319295;54;20983;-84
2021/08/14 02:21:26;;;;;;;3.75;2.17;;;23.20;58.30;;;;;;2544001;53;21047;-83
2021/08/14 02:23:52;;;;;;;5.15;2.25;;;23.20;58.30;;;;;;2555196;53;20988;-85
2021/08/14 02:26:18;;;;;;;3.17;1.85;;;23.10;58.20;;;;;;2553501;53;20970;-86
2021/08/14 02:28:44;;;;;;;3.60;2.10;;;23.10;58.10;;;;;;2556564;53;20997;-84
2021/08/14 02:31:11;;;;;;;3.90;2.30;;;23.10;58.20;;;;;;2556264;53;21588;-84
2021/08/14 02:33:37;;;;;;;3.25;1.85;;;23.10;58.20;;;;;;2526737;53;21061;-83
2021/08/14 02:36:04;;;;;;;5.53;2.05;;;23.10;58.20;;;;;;2541933;53;21540;-83
2021/08/14 02:38:31;;;;;;;4.20;2.17;;;23.00;58.00;;;;;;2319303;54;21013;-84
2021/08/14 02:40:57;;;;;;;3.75;2.00;;;23.10;58.20;;;;;;2502079;54;20963;-84
2021/08/14 02:43:24;;;;;;;4.78;2.40;;;23.00;58.10;;;;;;2318804;54;20908;-85
2021/08/14 02:45:50;;;;;;;5.03;2.37;;;23.00;58.10;;;;;;2550035;53;21002;-82
2021/08/14 02:48:17;;;;;;;5.78;2.90;;;23.00;58.20;;;;;;2501943;54;21503;-85
2021/08/14 02:50:44;;;;;;;5.12;2.00;;;22.90;58.30;;;;;;2550211;53;21017;-85
2021/08/14 02:53:10;;;;;;;3.83;2.05;;;22.90;58.30;;;;;;2524850;53;21064;-85
2021/08/14 02:55:36;;;;;;;3.78;1.90;;;22.90;58.10;;;;;;2321684;54;20985;-84
2021/08/14 02:58:03;;;;;;;5.28;2.37;;;22.80;58.40;;;;;;2547584;53;21090;-84
2021/08/14 03:00:29;;;;;;;4.62;2.50;;;22.80;58.40;;;;;;2322777;54;22037;-85
2021/08/14 03:02:55;;;;;;;3.78;1.92;;;22.80;58.40;;;;;;2283873;54;20950;-83
2021/08/14 03:05:22;;;;;;;3.67;2.17;;;22.80;58.40;;;;;;2537474;53;21388;-84
2021/08/14 03:07:48;;;;;;;3.10;1.77;;;22.70;58.50;;;;;;2537398;53;20965;-84
2021/08/14 03:10:14;;;;;;;5.97;2.60;;;22.70;58.50;;;;;;2549346;53;21010;-85
2021/08/14 03:12:41;;;;;;;4.12;2.25;;;22.70;58.50;;;;;;2325504;54;20982;-85
2021/08/14 03:15:08;;;;;;;5.53;2.05;;;22.60;58.50;;;;;;2321167;54;20973;-84
2021/08/14 03:17:34;;;;;;;4.68;2.17;;;22.60;58.60;;;;;;2324693;54;20952;-85
2021/08/14 03:20:01;;;;;;;4.00;2.42;;;22.60;58.70;;;;;;2308287;54;21093;-85
2021/08/14 03:22:27;;;;;;;4.05;2.30;;;22.50;59.00;;;;;;2542638;53;20941;-83
2021/08/14 03:24:53;;;;;;;3.40;1.80;;;22.50;58.70;;;;;;2551786;53;20937;-84
2021/08/14 03:27:20;;;;;;;4.35;2.33;;;22.50;58.70;;;;;;2555725;53;21484;-85
2021/08/14 03:29:46;;;;;;;4.93;2.50;;;22.50;58.70;;;;;;2323539;54;20969;-83
2021/08/14 03:32:12;;;;;;;3.50;2.00;;;22.50;58.80;;;;;;2327029;54;21803;-84
2021/08/14 03:34:38;;;;;;;5.40;2.20;;;22.40;58.80;;;;;;2554422;53;20958;-82
2021/08/14 03:37:05;;;;;;;3.47;2.03;;;22.40;58.80;;;;;;2323387;54;20954;-86
2021/08/14 03:39:33;;;;;;;4.55;2.33;;;22.40;58.90;;;;;;2555067;53;20957;-83
2021/08/14 03:41:59;;;;;;;4.80;2.60;;;22.40;59.00;;;;;;2511752;54;21485;-85
2021/08/14 03:44:26;;;;;;;3.85;2.30;;;22.30;59.00;;;;;;2541980;53;22180;-84
2021/08/14 03:46:52;;;;;;;4.03;2.35;;;22.30;59.00;;;;;;2553414;53;20997;-83
2021/08/14 03:49:19;;;;;;;5.37;2.92;;;22.30;59.10;;;;;;2549224;53;20988;-84
2021/08/14 03:51:48;;;;;;;4.57;2.40;;;22.30;59.20;;;;;;2294131;54;21258;-83
2021/08/14 03:54:14;;;;;;;3.35;1.95;;;22.20;59.20;;;;;;2326546;54;21259;-84
2021/08/14 03:56:40;;;;;;;4.55;2.47;;;22.20;59.20;;;;;;2301289;54;21046;-84
2021/08/14 03:59:06;;;;;;;5.70;2.15;;;22.20;59.30;;;;;;2311248;54;21016;-85
2021/08/14 04:01:33;;;;;;;4.12;2.22;;;22.20;59.30;;;;;;2549435;53;21011;-85
2021/08/14 04:03:59;;;;;;;3.95;2.28;;;22.20;59.80;;;;;;2553456;53;21025;-85
2021/08/14 04:06:25;;;;;;;4.32;2.42;;;22.20;59.30;;;;;;2552922;53;21036;-85
2021/08/14 04:08:51;;;;;;;4.85;2.10;;;22.20;59.40;;;;;;2300685;54;20940;-84
2021/08/14 04:11:18;;;;;;;4.93;2.58;;;22.20;59.30;;;;;;2550815;53;21083;-85
2021/08/14 04:13:44;;;;;;;3.92;2.20;;;22.10;59.30;;;;;;2547050;53;20961;-84
2021/08/14 04:16:10;;;;;;;4.00;2.45;;;22.10;59.30;;;;;;2555777;53;20953;-83
2021/08/14 04:18:37;;;;;;;3.95;2.25;;;22.10;59.40;;;;;;2549580;53;21044;-84
2021/08/14 04:21:03;;;;;;;3.97;2.30;;;22.10;59.40;;;;;;2317733;54;20961;-85
2021/08/14 04:23:31;;;;;;;3.90;2.15;;;22.00;59.40;;;;;;2555863;53;21020;-83
2021/08/14 04:25:57;;;;;;;3.45;1.90;;;22.10;59.60;;;;;;2286265;54;21058;-84
2021/08/14 04:28:24;;;;;;;3.95;2.15;;;22.00;59.60;;;;;;2536846;53;20985;-83
2021/08/14 04:30:50;;;;;;;5.07;2.50;;;22.10;59.80;;;;;;2557498;53;20938;-86
2021/08/14 04:33:16;;;;;;;4.25;2.30;;;22.00;59.80;;;;;;2548547;53;21102;-83
2021/08/14 04:35:43;;;;;;;5.12;2.45;;;22.00;59.80;;;;;;2546962;53;21815;-83
2021/08/14 04:38:09;;;;;;;4.72;2.10;;;22.00;59.90;;;;;;2557446;53;20989;-84
2021/08/14 04:40:35;;;;;;;4.43;2.37;;;22.10;60.00;;;;;;2552393;53;21308;-84
2021/08/14 04:43:01;;;;;;;3.50;2.17;;;22.10;60.00;;;;;;2323094;54;20992;-85
2021/08/14 04:45:28;;;;;;;4.93;1.95;;;22.00;59.90;;;;;;2305420;54;20926;-85
2021/08/14 04:47:54;;;;;;;3.60;2.12;;;22.00;59.90;;;;;;2524018;53;20990;-83
2021/08/14 04:50:20;;;;;;;5.00;2.70;;;22.00;59.90;;;;;;2312566;54;20908;-85
2021/08/14 04:52:46;;;;;;;3.78;2.15;;;22.10;60.00;;;;;;2524631;53;20947;-84
2021/08/14 04:55:13;;;;;;;3.80;2.20;;;22.00;60.00;;;;;;2325218;54;21472;-85
2021/08/14 04:57:39;;;;;;;4.57;2.28;;;22.00;60.00;;;;;;2538383;53;20997;-85
2021/08/14 05:00:06;;;;;;;4.15;2.15;;;22.10;60.20;;;;;;2321227;54;21012;-83
2021/08/14 05:02:33;;;;;;;3.97;2.08;;;22.10;60.30;;;;;;2553528;53;21030;-84
2021/08/14 05:04:59;;;;;;;3.85;2.15;;;22.00;60.20;;;;;;2322868;54;20938;-84
2021/08/14 05:07:25;;;;;;;4.00;2.17;;;22.00;60.30;;;;;;2507165;54;20946;-85
2021/08/14 05:09:53;;;;;;;3.55;2.10;;;22.10;60.50;;;;;;2320195;54;20945;-84
2021/08/14 05:12:19;;;;;;;3.75;2.00;;;22.10;60.50;;;;;;2548362;53;21039;-84
2021/08/14 05:14:45;;;;;;;3.00;1.92;;;22.10;60.50;;;;;;2317642;54;20945;-85
2021/08/14 05:17:11;;;;;;;4.43;2.60;;;22.10;60.50;;;;;;2328719;54;21080;-84
2021/08/14 05:19:37;;;;;;;3.80;2.17;;;22.10;60.60;;;;;;2322198;54;21060;-82
2021/08/14 05:22:04;;;;;;;4.03;2.15;;;22.10;60.50;;;;;;2554716;53;21052;-84
2021/08/14 05:24:30;;;;;;;3.72;2.25;;;22.10;60.50;;;;;;2535601;53;20979;-84
2021/08/14 05:26:57;;;;;;;4.40;2.65;;;22.20;60.70;;;;;;2322229;54;21096;-85
2021/08/14 05:29:24;;;;;;;4.00;2.45;;;22.20;60.80;;;;;;2547913;53;21055;-84
2021/08/14 05:31:50;;;;;;;3.83;2.30;;;22.20;60.90;;;;;;2315071;54;21039;-84
2021/08/14 05:34:17;;;;;;;4.00;2.37;;;22.20;60.80;;;;;;2555085;53;21086;-85
2021/08/14 05:36:43;;;;;;;3.72;2.22;;;22.20;61.00;;;;;;2323692;54;20969;-83
2021/08/14 05:39:09;;;;;;;3.80;2.30;;;22.30;61.10;;;;;;2322265;54;21054;-85
2021/08/14 05:41:40;;;;;;;4.30;2.22;;;22.30;61.30;;;;;;2326941;54;20966;-86
2021/08/14 05:44:06;;;;;;;4.35;2.42;;;22.30;61.40;;;;;;2540523;53;21054;-84
2021/08/14 05:46:33;;;;;;;7.10;2.33;;;22.40;61.50;;;;;;2552771;53;21861;-83
2021/08/14 05:48:59;;;;;;;4.97;2.33;;;22.40;61.40;;;;;;2326293;54;21018;-85
2021/08/14 05:51:25;;;;;;;4.07;2.62;;;22.50;61.50;;;;;;2542256;53;20958;-85
2021/08/14 05:54:00;;;;;;;4.20;2.60;;;22.50;61.50;;;;;;2555354;53;21420;-84
2021/08/14 05:56:29;;;;;;;4.78;2.40;;;22.50;61.50;;;;;;2555968;53;20986;-84
2021/08/14 05:58:56;;;;;;;4.40;2.33;;;22.60;61.70;;;;;;2304999;54;21032;-83
2021/08/14 06:01:22;;;;;;;3.85;2.58;;;22.60;61.80;;;;;;2551415;53;20938;-85
2021/08/14 06:03:48;;;;;;;4.18;2.70;;;22.70;61.90;;;;;;2555124;53;21539;-86
2021/08/14 06:06:14;;;;;;;4.32;2.58;;;22.70;62.00;;;;;;2554088;53;21022;-85
2021/08/14 06:08:41;;;;;;;5.45;3.17;;;22.80;62.00;;;;;;2556163;53;20997;-86
2021/08/14 06:11:07;;;;;;;5.53;3.33;;;22.90;62.20;;;;;;2318545;54;21000;-84
2021/08/14 06:13:33;;;;;;;4.95;3.30;;;22.90;62.20;;;;;;2530087;53;21824;-85
2021/08/14 06:15:59;;;;;;;6.75;3.28;;;23.00;62.40;;;;;;2555280;53;21096;-85
2021/08/14 06:18:26;;;;;;;4.75;3.40;;;23.00;62.40;;;;;;2557758;53;21015;-86
2021/08/14 06:20:52;;;;;;;6.15;3.20;;;23.10;62.50;;;;;;2311731;54;20918;-85
2021/08/14 06:23:18;;;;;;;5.00;2.95;;;23.10;62.40;;;;;;2556370;53;21057;-86
2021/08/14 06:25:44;;;;;;;4.57;2.85;;;23.20;62.40;;;;;;2530063;53;20953;-85
2021/08/14 06:28:11;;;;;;;6.12;2.92;;;23.30;62.50;;;;;;2325926;54;21041;-85
2021/08/14 06:30:40;;;;;;;4.70;3.10;;;23.30;62.40;;;;;;2555816;53;20937;-86
2021/08/14 06:33:06;;;;;;;8.18;3.85;;;23.40;62.60;;;;;;2543827;53;20989;-86
2021/08/14 06:35:33;;;;;;;5.97;3.42;;;23.50;62.70;;;;;;2544479;53;20934;-86
2021/08/14 06:38:00;;;;;;;5.70;3.37;;;23.50;62.60;;;;;;2544187;53;21003;-84
2021/08/14 06:40:27;;;;;;;6.22;3.55;;;23.60;62.50;;;;;;2556892;53;21533;-84
2021/08/14 06:42:53;;;;;;;6.97;3.30;;;23.70;62.70;;;;;;2323737;54;20970;-84
2021/08/14 06:45:19;;;;;;;6.75;3.15;;;23.80;62.90;;;;;;2542849;53;21905;-85
2021/08/14 06:47:46;;;;;;;5.12;2.90;;;23.80;62.80;;;;;;2323005;54;20926;-86
2021/08/14 06:50:12;;;;;;;7.90;3.78;;;23.90;62.90;;;;;;2545470;53;22020;-87
2021/08/14 06:52:38;;;;;;;4.57;3.12;;;23.90;63.00;;;;;;2330092;54;21004;-87
2021/08/14 06:55:05;;;;;;;6.25;3.50;;;24.10;63.30;;;;;;2553586;53;20949;-84
2021/08/14 06:57:31;;;;;;;5.90;3.75;;;24.10;63.20;;;;;;2550393;53;21407;-86
2021/08/14 06:59:58;;;;;;;5.22;3.10;;;24.20;63.30;;;;;;2550225;53;20925;-87
2021/08/14 07:02:24;;;;;;;5.62;3.42;;;24.30;63.60;;;;;;2324942;54;20959;-88
2021/08/14 07:04:50;;;;;;;5.62;3.42;;;24.40;63.30;;;;;;2559640;53;21650;-87
2021/08/14 07:07:17;;;;;;;5.93;3.55;;;24.50;63.30;;;;;;2557160;53;21930;-88
2021/08/14 07:09:44;;;;;;;5.12;3.45;;;24.60;63.50;;;;;;2557177;53;20918;-86
2021/08/14 07:12:10;;;;;;;6.35;3.55;;;24.80;63.50;;;;;;2556655;53;20954;-85
2021/08/14 07:14:36;;;;;;;4.93;3.25;;;24.80;63.40;;;;;;2556336;53;20990;-84
2021/08/14 07:17:03;;;;;;;4.72;3.05;;;25.00;63.30;;;;;;2552346;53;20926;-85
2021/08/14 07:19:29;;;;;;;6.50;3.67;;;25.10;63.30;;;;;;2558080;53;20922;-88
2021/08/14 07:21:55;;;;;;;5.32;3.47;;;25.20;63.20;;;;;;2559119;53;20984;-86
2021/08/14 07:24:22;;;;;;;8.38;3.95;;;25.30;63.10;;;;;;2557046;53;20929;-86
2021/08/14 07:26:48;;;;;;;5.40;3.92;;;25.40;63.00;;;;;;2559037;53;21689;-85
2021/08/14 07:29:15;;;;;;;7.12;3.60;;;25.50;62.80;;;;;;2555451;53;20970;-85
2021/08/14 07:31:41;;;;;;;5.40;3.60;;;25.60;62.70;;;;;;2556270;53;21013;-89
2021/08/14 07:34:07;;;;;;;5.80;3.75;;;25.70;62.60;;;;;;2562620;53;21076;-91
2021/08/14 07:36:33;;;;;;;5.22;3.53;;;25.90;62.50;;;;;;2294988;54;21017;-90
2021/08/14 07:39:00;;;;;;;7.45;4.12;;;25.90;62.40;;;;;;2544696;53;20964;-85
2021/08/14 07:41:27;;;;;;;7.55;4.12;;;26.10;62.60;;;;;;2293027;55;20988;-92
2021/08/14 07:43:53;;;;;;;7.18;3.90;;;26.20;62.90;;;;;;2259771;55;135463;-70
2021/08/14 07:46:20;;;;;;;7.00;4.15;;;26.40;63.60;;;;;;2229821;56;21010;-72
2021/08/14 07:48:46;;;;;;;5.72;3.33;;;26.60;63.80;;;;;;2242083;56;20934;-73
2021/08/14 07:53:52;;;;;;;5.72;3.60;;;27.00;63.10;;;;;;2297556;55;20971;-71
2021/08/14 07:56:18;;;;;;;6.05;3.80;;;27.10;62.40;;;;;;2273589;55;21375;-67
2021/08/14 07:58:44;;;;;;;5.75;3.55;;;27.20;61.90;;;;;;2358235;54;21445;-67
2021/08/14 08:01:10;;;;;;;5.95;3.70;;;27.30;61.40;;;;;;2301797;55;20955;-69
2021/08/14 08:03:37;;;;;;;6.32;3.65;;;27.40;61.10;;;;;;2270811;55;21034;-67
2021/08/14 08:06:03;;;;;;;6.70;3.30;;;27.50;60.70;;;;;;2291565;55;20963;-70
2021/08/14 08:08:29;;;;;;;6.85;3.90;;;27.60;60.30;;;;;;2287846;55;20972;-69
2021/08/14 08:10:55;;;;;;;9.23;3.75;;;27.60;60.10;;;;;;2295159;54;20947;-69
2021/08/14 08:13:21;;;;;;;5.30;3.60;;;27.70;60.00;;;;;;2297324;55;21000;-70
2021/08/14 08:15:48;;;;;;;5.78;3.95;;;27.70;60.00;;;;;;2343423;54;20928;-73
2021/08/14 08:18:14;;;;;;;6.72;4.10;;;27.70;59.80;;;;;;2291715;55;21051;-74
2021/08/14 08:20:44;;;;;;;5.82;3.83;;;27.80;59.60;;;;;;2291960;55;21507;-71
2021/08/14 08:23:10;;;;;;;7.15;4.20;;;27.80;59.60;;;;;;2298643;54;20996;-72
2021/08/14 08:25:39;;;;;;;4.87;3.37;;;27.90;59.60;;;;;;2293230;55;21740;-73
2021/08/14 08:28:05;;;;;;;5.37;3.50;;;27.90;59.50;;;;;;2298751;55;20971;-67
2021/08/14 08:30:32;;;;;;;6.22;4.07;;;28.00;59.50;;;;;;2289060;55;21020;-68
2021/08/14 08:32:58;;;;;;;5.45;3.90;;;28.00;59.40;;;;;;2519685;54;20952;-67
2021/08/14 08:35:24;;;;;;;6.00;3.83;;;28.10;59.40;;;;;;2303187;55;22000;-71
2021/08/14 08:37:51;;;;;;;5.90;3.62;;;28.10;59.20;;;;;;2291785;54;21714;-68
2021/08/14 08:40:18;;;;;;;5.35;3.45;;;28.20;59.30;;;;;;2298503;55;20976;-68
2021/08/14 08:42:45;;;;;;;5.53;3.78;;;28.20;59.20;;;;;;2302772;55;20960;-71
2021/08/14 08:45:12;;;;;;;6.68;3.90;;;28.30;59.20;;;;;;2290995;55;20951;-67
2021/08/14 08:47:40;;;;;;;5.37;3.83;;;28.40;59.00;;;;;;2290180;55;21922;-67
2021/08/14 08:50:07;;;;;;;7.90;3.75;;;28.40;58.70;;;;;;2505824;54;21007;-66
2021/08/14 08:52:33;;;;;;;5.95;3.70;;;28.50;58.60;;;;;;2290088;55;21027;-66
2021/08/14 08:54:59;;;;;;;5.10;3.62;;;28.50;58.60;;;;;;2491022;54;21893;-66
2021/08/14 08:57:27;;;;;;;5.57;3.72;;;28.60;58.50;;;;;;2299088;54;22085;-67
2021/08/14 08:59:53;;;;;;;4.72;3.25;;;28.60;58.60;;;;;;2299577;54;20976;-66
2021/08/14 09:03:22;;;;;;;5.05;3.75;;;28.70;58.60;;;;;;2293560;55;21054;-67
2021/08/14 09:05:50;;;;;;;6.35;3.97;;;28.70;58.20;;;;;;2461409;54;21079;-66
2021/08/14 09:08:17;;;;;;;5.05;3.70;;;28.80;58.40;;;;;;2293565;55;21027;-66
2021/08/14 09:10:45;;;;;;;5.82;3.42;;;28.80;58.30;;;;;;2303360;55;21925;-67
2021/08/14 09:13:18;;;;;;;6.00;3.65;;;28.90;58.30;;;;;;2300951;54;21039;-68
2021/08/14 09:15:45;;;;;;;5.22;3.50;;;29.00;58.50;;;;;;2522040;54;20968;-66
2021/08/14 09:18:13;;;;;;;6.03;3.50;;;29.10;58.50;;;;;;2293863;55;21059;-67
2021/08/14 09:20:54;;;;;;;6.55;4.07;;;29.10;58.40;;;;;;2294035;55;21815;-67
2021/08/14 09:23:22;;;;;;;5.37;3.85;;;29.20;57.90;;;;;;2275540;55;21028;-66
2021/08/14 09:26:07;;;;;;;5.50;4.00;;;29.30;58.20;;;;;;2297073;55;21512;-66
2021/08/14 09:28:40;;;;;;;5.60;3.85;;;29.40;58.00;;;;;;2291118;55;21047;-69
2021/08/14 09:31:06;;;;;;;6.53;3.70;;;29.50;58.40;;;;;;2297380;55;21019;-66
2021/08/14 09:33:34;;;;;;;4.75;3.35;;;29.50;58.20;;;;;;2498643;54;21501;-66
2021/08/14 09:36:07;;;;;;;5.53;3.62;;;29.60;58.10;;;;;;2527993;54;20951;-70
2021/08/14 09:39:06;;;;;;;5.03;3.60;;;29.70;57.80;;;;;;2294093;55;20962;-67
2021/08/14 09:41:32;;;;;;;5.57;3.60;;;29.80;57.60;;;;;;2415518;54;21026;-67
2021/08/14 09:43:59;;;;;;;5.37;3.85;;;29.90;57.70;;;;;;2293441;55;21028;-67
2021/08/14 09:46:42;;;;;;;5.03;3.72;;;30.00;57.40;;;;;;2292707;55;21123;-67
2021/08/14 09:49:10;;;;;;;5.20;4.03;;;30.10;56.80;;;;;;2275936;55;21486;-67
2021/08/14 09:51:37;;;;;;;5.32;3.65;;;30.10;57.00;;;;;;2297901;55;20980;-67
2021/08/14 09:54:05;;;;;;;5.97;3.70;;;30.10;56.80;;;;;;2299423;54;21036;-66
2021/08/14 09:56:34;;;;;;;6.35;4.12;;;30.20;56.60;;;;;;2486907;54;20936;-67
2021/08/14 09:59:01;;;;;;;5.97;4.12;;;30.30;56.50;;;;;;2293227;55;20976;-66
2021/08/14 10:01:29;;;;;;;7.30;4.35;;;30.30;56.30;;;;;;2296240;55;21039;-67
2021/08/14 10:03:55;;;;;;;5.10;3.60;;;30.40;56.30;;;;;;2295943;55;21706;-67
2021/08/14 10:06:21;;;;;;;5.53;3.87;;;30.40;56.10;;;;;;2293236;55;21007;-67
2021/08/14 10:08:48;;;;;;;6.00;4.00;;;30.50;56.00;;;;;;2295810;55;21059;-68
2021/08/14 10:11:14;;;;;;;5.25;3.67;;;30.50;55.80;;;;;;2297057;55;21934;-66
2021/08/14 10:13:41;;;;;;;6.03;3.80;;;30.60;55.90;;;;;;2288212;55;21051;-66
2021/08/14 10:16:09;;;;;;;5.60;3.85;;;30.70;55.80;;;;;;2291421;55;20979;-68
2021/08/14 10:18:35;;;;;;;4.70;3.35;;;30.70;55.70;;;;;;2294410;55;21045;-69
2021/08/14 10:21:04;;;;;;;5.72;3.90;;;30.60;55.70;;;;;;2296724;55;20995;-68
2021/08/14 10:23:31;;;;;;;5.78;3.87;;;30.80;55.40;;;;;;2298545;54;20986;-67
2021/08/14 10:26:05;;;;;;;5.43;3.70;;;30.90;55.30;;;;;;2303407;54;21009;-68
2021/08/14 10:28:50;;;;;;;7.95;3.72;;;30.90;55.10;;;;;;2275310;55;22063;-66
2021/08/14 10:34:48;;;;;;;5.87;3.90;;;31.00;54.50;;;;;;2298345;54;22001;-66
2021/08/14 10:37:33;;;;;;;5.65;2.92;;;31.20;54.80;;;;;;2415742;54;21031;-69
2021/08/14 10:40:06;;;;;;;5.15;3.22;;;31.20;54.20;;;;;;2285754;55;20971;-66
2021/08/14 10:46:22;;;;;;;5.87;3.53;;;31.30;54.30;;;;;;2390618;54;21019;-68
2021/08/14 10:48:54;;;;;;;4.40;2.58;;;31.40;54.60;;;;;;2297792;55;20971;-68
2021/08/14 10:51:20;;;;;;;5.90;3.33;;;31.50;54.30;;;;;;2297500;55;20959;-67
2021/08/14 10:53:50;;;;;;;5.40;3.37;;;31.50;54.50;;;;;;2299818;55;21739;-66
2021/08/14 10:56:53;;;;;;;4.95;3.62;;;31.60;54.70;;;;;;2519405;54;21020;-71
2021/08/14 11:06:26;;;;;;;4.90;3.40;;;31.70;54.00;;;;;;2297222;55;20936;-67
2021/08/14 11:10:33;;;;;;;6.45;3.37;;;32.00;54.20;;;;;;2523441;54;21068;-70
2021/08/14 11:13:00;;;;;;;4.35;3.08;;;32.00;53.00;;;;;;2416959;54;20980;-69
2021/08/14 11:15:29;;;;;;;4.78;3.42;;;32.00;53.40;;;;;;2300108;54;20930;-72
2021/08/14 11:17:59;;;;;;;4.57;3.62;;;32.10;53.50;;;;;;2275634;55;21101;-68
2021/08/14 11:20:39;;;;;;;4.55;3.30;;;32.10;53.50;;;;;;2296914;55;21126;-68
2021/08/14 11:26:39;;;;;;;5.50;2.95;;;32.20;53.30;;;;;;2323193;54;21076;-66
2021/08/14 11:29:06;;;;;;;3.78;2.35;;;32.40;53.60;;;;;;2299596;55;20987;-69
2021/08/14 11:31:32;;;;;;;6.57;3.10;;;32.40;53.30;;;;;;2493195;54;21091;-68
2021/08/14 11:34:00;;;;;;;5.87;3.45;;;32.50;53.30;;;;;;2306880;55;20925;-69
2021/08/14 11:36:28;;;;;;;5.40;3.40;;;32.60;53.50;;;;;;2389075;54;21121;-66
2021/08/14 11:39:00;;;;;;;4.75;3.42;;;32.60;52.60;;;;;;2279863;55;22036;-69
2021/08/14 11:41:27;;;;;;;4.72;3.65;;;32.70;52.40;;;;;;2296640;55;20992;-69
2021/08/14 11:43:53;;;;;;;6.30;3.28;;;32.60;52.30;;;;;;2295615;55;21914;-69
2021/08/14 11:46:23;;;;;;;5.87;2.90;;;32.70;52.30;;;;;;2483268;54;21039;-69
2021/08/14 11:48:51;;;;;;;5.75;2.85;;;32.80;52.20;;;;;;2296079;55;21020;-69
2021/08/14 11:51:21;;;;;;;5.35;3.55;;;32.80;52.20;;;;;;2292180;54;21043;-69
2021/08/14 11:53:48;;;;;;;4.85;3.30;;;32.80;51.80;;;;;;2294332;55;21020;-69
2021/08/14 11:56:16;;;;;;;4.60;3.35;;;32.90;51.70;;;;;;2296719;55;20979;-69
2021/08/14 11:58:43;;;;;;;4.50;2.90;;;33.00;51.70;;;;;;2292988;55;21029;-69
2021/08/14 12:01:20;;;;;;;4.97;3.15;;;33.00;51.70;;;;;;2292776;55;20999;-68
2021/08/14 12:03:56;;;;;;;4.57;3.17;;;33.00;51.20;;;;;;2297089;55;21035;-67
2021/08/14 12:06:26;;;;;;;5.70;3.33;;;33.10;50.90;;;;;;2304669;54;21775;-69
2021/08/14 12:08:56;;;;;;;5.25;3.60;;;33.20;51.30;;;;;;2298123;54;20971;-67
2021/08/14 12:11:29;;;;;;;4.40;3.20;;;33.20;50.70;;;;;;2292814;55;21413;-68
2021/08/14 12:14:20;;;;;;;4.00;2.92;;;33.20;50.80;;;;;;2297266;55;20975;-69
2021/08/14 12:16:50;;;;;;;5.37;3.20;;;33.20;50.10;;;;;;2414849;54;20998;-69
2021/08/14 12:19:18;;;;;;;4.10;2.83;;;33.30;51.10;;;;;;2295933;55;21027;-70
2021/08/14 12:21:45;;;;;;;4.15;2.83;;;33.30;50.40;;;;;;2522159;54;20995;-68
2021/08/14 12:24:11;;;;;;;5.20;2.62;;;33.40;50.40;;;;;;2294586;55;20964;-70
2021/08/14 12:26:39;;;;;;;6.18;3.45;;;33.40;50.30;;;;;;2353825;54;20958;-74
2021/08/14 12:29:12;;;;;;;5.28;2.80;;;33.40;50.10;;;;;;2366721;54;21028;-69
2021/08/14 12:32:39;;;;;;;6.55;2.70;;;33.40;49.50;;;;;;2520211;54;21076;-75
2021/08/14 12:35:24;;;;;;;4.20;2.55;;;33.50;49.40;;;;;;2299796;54;21036;-74
2021/08/14 12:37:51;;;;;;;4.53;2.72;;;33.60;49.30;;;;;;2295432;54;21118;-69
2021/08/14 12:40:19;;;;;;;4.53;2.95;;;33.60;49.60;;;;;;2302923;55;20955;-68
2021/08/14 12:42:46;;;;;;;7.07;3.05;;;33.60;49.10;;;;;;2298353;55;21724;-69
2021/08/14 12:45:20;;;;;;;5.45;2.53;;;33.70;49.20;;;;;;2295104;55;21103;-68
2021/08/14 12:47:48;;;;;;;4.03;2.45;;;33.70;49.10;;;;;;2299025;55;20994;-68
2021/08/14 12:50:35;;;;;;;4.15;2.50;;;33.70;49.20;;;;;;2286354;55;20992;-69
2021/08/14 12:53:17;;;;;;;3.95;2.60;;;33.80;48.10;;;;;;2293601;55;20979;-67
2021/08/14 12:55:52;;;;;;;4.07;2.50;;;33.80;47.90;;;;;;2300796;55;21087;-68
2021/08/14 12:58:22;;;;;;;7.50;2.80;;;33.80;48.00;;;;;;2282035;55;21125;-69
2021/08/14 13:00:53;;;;;;;5.53;2.50;;;33.90;47.80;;;;;;2297531;55;21056;-71
2021/08/14 13:03:19;;;;;;;4.03;2.80;;;33.90;47.60;;;;;;2304306;54;21465;-68
2021/08/14 13:05:47;;;;;;;4.32;2.47;;;33.90;47.90;;;;;;2291547;55;20985;-68
2021/08/14 13:08:13;;;;;;;5.30;2.85;;;33.90;47.70;;;;;;2293263;55;21371;-68
2021/08/14 13:10:40;;;;;;;3.67;2.58;;;33.90;47.60;;;;;;2297171;54;21047;-70
2021/08/14 13:13:10;;;;;;;5.40;2.12;;;34.00;47.70;;;;;;2361719;54;21066;-70
2021/08/14 13:15:47;;;;;;;4.07;2.40;;;34.00;47.50;;;;;;2294580;55;21011;-67